N8351P KEAT-KALW
Flight info
| Callsign | N8351P |
|---|---|
| Flight time | 0h 47m |
| Altitude | 7000 |
| Route | EAT QUINT WATSY BACUN ALW |
| Aircraft | PA24/L-SDGRY/S |
Departure
| Time | 2026-05-06 05:23 |
|---|---|
| Airport | Pangborn Memorial Airport (KEAT) |
Arrival
| Time | 2026-05-06 06:10 |
|---|---|
| Airport | Walla Walla Regional Airport (KALW) |
| Time | Latitude | Longitude | Altitude | Speed | Heading |
|---|---|---|---|---|---|
| 2026-05-06 04:52 | 47.40268 | -120.20894 | 1218 ft | 0 kts | 318° |
| 2026-05-06 04:58 | 47.40272 | -120.20899 | 1218 ft | 5 kts | 318° |
| 2026-05-06 04:58 | 47.40275 | -120.20904 | 1218 ft | 0 kts | 320° |
| 2026-05-06 05:16 | 47.40280 | -120.20914 | 1218 ft | 3 kts | 284° |
| 2026-05-06 05:16 | 47.40266 | -120.20959 | 1217 ft | 5 kts | 193° |
| 2026-05-06 05:17 | 47.40225 | -120.20897 | 1219 ft | 13 kts | 129° |
| 2026-05-06 05:17 | 47.40142 | -120.20779 | 1221 ft | 19 kts | 135° |
| 2026-05-06 05:17 | 47.40046 | -120.20639 | 1225 ft | 17 kts | 136° |
| 2026-05-06 05:17 | 47.39974 | -120.20534 | 1228 ft | 12 kts | 139° |
| 2026-05-06 05:18 | 47.39925 | -120.20462 | 1230 ft | 8 kts | 134° |
| 2026-05-06 05:18 | 47.39877 | -120.20392 | 1232 ft | 13 kts | 137° |
| 2026-05-06 05:18 | 47.39797 | -120.20279 | 1241 ft | 18 kts | 135° |
| 2026-05-06 05:18 | 47.39700 | -120.20129 | 1242 ft | 22 kts | 135° |
| 2026-05-06 05:19 | 47.39581 | -120.19957 | 1240 ft | 25 kts | 136° |
| 2026-05-06 05:19 | 47.39464 | -120.19784 | 1247 ft | 23 kts | 136° |
| 2026-05-06 05:19 | 47.39368 | -120.19642 | 1252 ft | 15 kts | 136° |
| 2026-05-06 05:19 | 47.39318 | -120.19605 | 1247 ft | 7 kts | 202° |
| 2026-05-06 05:20 | 47.39283 | -120.19648 | 1254 ft | 7 kts | 227° |
| 2026-05-06 05:20 | 47.39279 | -120.19655 | 1251 ft | 0 kts | 226° |
| 2026-05-06 05:21 | 47.39264 | -120.19677 | 1252 ft | 8 kts | 226° |
| 2026-05-06 05:22 | 47.39239 | -120.19743 | 1249 ft | 8 kts | 285° |
| 2026-05-06 05:22 | 47.39287 | -120.19838 | 1248 ft | 31 kts | 314° |
| 2026-05-06 05:22 | 47.39587 | -120.20280 | 1269 ft | 78 kts | 312° |
| 2026-05-06 05:22 | 47.40002 | -120.20890 | 1466 ft | 89 kts | 317° |
| 2026-05-06 05:23 | 47.40323 | -120.21670 | 1745 ft | 89 kts | 284° |
| 2026-05-06 05:23 | 47.40143 | -120.22503 | 2034 ft | 91 kts | 221° |
| 2026-05-06 05:23 | 47.39098 | -120.21848 | 2525 ft | 99 kts | 107° |
| 2026-05-06 05:24 | 47.39015 | -120.20836 | 2788 ft | 97 kts | 93° |
| 2026-05-06 05:24 | 47.39032 | -120.19842 | 3027 ft | 100 kts | 89° |
| 2026-05-06 05:24 | 47.38993 | -120.18828 | 3296 ft | 99 kts | 115° |
| 2026-05-06 05:24 | 47.38557 | -120.18058 | 3544 ft | 96 kts | 143° |
| 2026-05-06 05:25 | 47.38056 | -120.17436 | 3807 ft | 95 kts | 143° |
| 2026-05-06 05:25 | 47.37573 | -120.16782 | 4050 ft | 95 kts | 139° |
| 2026-05-06 05:25 | 47.37108 | -120.16047 | 4236 ft | 101 kts | 132° |
| 2026-05-06 05:25 | 47.36677 | -120.15225 | 4491 ft | 100 kts | 131° |
| 2026-05-06 05:26 | 47.36269 | -120.14422 | 4711 ft | 100 kts | 130° |
| 2026-05-06 05:26 | 47.35797 | -120.13629 | 4884 ft | 104 kts | 136° |
| 2026-05-06 05:26 | 47.35352 | -120.12788 | 5109 ft | 104 kts | 128° |
| 2026-05-06 05:26 | 47.34882 | -120.11984 | 5300 ft | 105 kts | 140° |
| 2026-05-06 05:27 | 47.34335 | -120.11281 | 5509 ft | 105 kts | 142° |
| 2026-05-06 05:27 | 47.33771 | -120.10595 | 5711 ft | 106 kts | 143° |
| 2026-05-06 05:27 | 47.33253 | -120.09821 | 5903 ft | 108 kts | 135° |
| 2026-05-06 05:27 | 47.32730 | -120.09006 | 6117 ft | 109 kts | 135° |
| 2026-05-06 05:28 | 47.32132 | -120.08315 | 6282 ft | 113 kts | 152° |
| 2026-05-06 05:28 | 47.31600 | -120.07479 | 6511 ft | 108 kts | 129° |
| 2026-05-06 05:28 | 47.31126 | -120.06613 | 6699 ft | 110 kts | 130° |
| 2026-05-06 05:28 | 47.30625 | -120.05760 | 6885 ft | 111 kts | 131° |
| 2026-05-06 05:29 | 47.30106 | -120.04900 | 7021 ft | 115 kts | 132° |
| 2026-05-06 05:29 | 47.29528 | -120.03970 | 7038 ft | 130 kts | 133° |
| 2026-05-06 05:29 | 47.28883 | -120.02935 | 7022 ft | 143 kts | 132° |
| 2026-05-06 05:29 | 47.28191 | -120.01815 | 7012 ft | 151 kts | 132° |
| 2026-05-06 05:30 | 47.27474 | -120.00656 | 7007 ft | 155 kts | 132° |
| 2026-05-06 05:30 | 47.26739 | -119.99466 | 6986 ft | 158 kts | 132° |
| 2026-05-06 05:30 | 47.25999 | -119.98258 | 6991 ft | 160 kts | 133° |
| 2026-05-06 05:30 | 47.25240 | -119.97043 | 6993 ft | 163 kts | 134° |
| 2026-05-06 05:31 | 47.24465 | -119.95805 | 6995 ft | 165 kts | 134° |
| 2026-05-06 05:31 | 47.23684 | -119.94553 | 7000 ft | 166 kts | 134° |
| 2026-05-06 05:31 | 47.22901 | -119.93296 | 6994 ft | 167 kts | 134° |
| 2026-05-06 05:31 | 47.22118 | -119.92037 | 6997 ft | 167 kts | 133° |
| 2026-05-06 05:32 | 47.21346 | -119.90777 | 7003 ft | 167 kts | 130° |
| 2026-05-06 05:32 | 47.20643 | -119.89371 | 6976 ft | 170 kts | 129° |
| 2026-05-06 05:32 | 47.19930 | -119.88028 | 6994 ft | 168 kts | 129° |
| 2026-05-06 05:32 | 47.19220 | -119.86664 | 6989 ft | 168 kts | 128° |
| 2026-05-06 05:33 | 47.18512 | -119.85291 | 6997 ft | 168 kts | 128° |
| 2026-05-06 05:33 | 47.17806 | -119.83922 | 6992 ft | 168 kts | 128° |
| 2026-05-06 05:33 | 47.17100 | -119.82556 | 6996 ft | 168 kts | 128° |
| 2026-05-06 05:33 | 47.16391 | -119.81184 | 7000 ft | 168 kts | 128° |
| 2026-05-06 05:34 | 47.15687 | -119.79817 | 6996 ft | 168 kts | 128° |
| 2026-05-06 05:34 | 47.14976 | -119.78446 | 6993 ft | 168 kts | 128° |
| 2026-05-06 05:34 | 47.14265 | -119.77076 | 6995 ft | 168 kts | 128° |
| 2026-05-06 05:34 | 47.13555 | -119.75704 | 6996 ft | 168 kts | 128° |
| 2026-05-06 05:35 | 47.12847 | -119.74337 | 6999 ft | 168 kts | 128° |
| 2026-05-06 05:35 | 47.12136 | -119.72969 | 6999 ft | 168 kts | 128° |
| 2026-05-06 05:35 | 47.11429 | -119.71602 | 6995 ft | 168 kts | 128° |
| 2026-05-06 05:35 | 47.10717 | -119.70233 | 6985 ft | 168 kts | 128° |
| 2026-05-06 05:36 | 47.10007 | -119.68866 | 6983 ft | 168 kts | 128° |
| 2026-05-06 05:36 | 47.09298 | -119.67498 | 6988 ft | 169 kts | 128° |
| 2026-05-06 05:36 | 47.08585 | -119.66131 | 6980 ft | 168 kts | 128° |
| 2026-05-06 05:36 | 47.07876 | -119.64764 | 6988 ft | 168 kts | 128° |
| 2026-05-06 05:37 | 47.07164 | -119.63397 | 6987 ft | 169 kts | 128° |
| 2026-05-06 05:37 | 47.06454 | -119.62032 | 6987 ft | 168 kts | 128° |
| 2026-05-06 05:37 | 47.05742 | -119.60662 | 6984 ft | 169 kts | 128° |
| 2026-05-06 05:37 | 47.05031 | -119.59301 | 6982 ft | 169 kts | 128° |
| 2026-05-06 05:38 | 47.04318 | -119.57936 | 6984 ft | 168 kts | 128° |
| 2026-05-06 05:38 | 47.03616 | -119.56593 | 6984 ft | 168 kts | 128° |
| 2026-05-06 05:38 | 47.02896 | -119.55211 | 6990 ft | 169 kts | 128° |
| 2026-05-06 05:38 | 47.02185 | -119.53845 | 6985 ft | 168 kts | 128° |
| 2026-05-06 05:39 | 47.01480 | -119.52499 | 6978 ft | 169 kts | 128° |
| 2026-05-06 05:39 | 47.00769 | -119.51134 | 6989 ft | 169 kts | 128° |
| 2026-05-06 05:39 | 47.00056 | -119.49772 | 6989 ft | 169 kts | 128° |
| 2026-05-06 05:39 | 46.99344 | -119.48410 | 6989 ft | 168 kts | 128° |
| 2026-05-06 05:40 | 46.98630 | -119.47046 | 6992 ft | 169 kts | 128° |
| 2026-05-06 05:40 | 46.97915 | -119.45685 | 6985 ft | 169 kts | 128° |
| 2026-05-06 05:40 | 46.97201 | -119.44320 | 6992 ft | 168 kts | 128° |
| 2026-05-06 05:40 | 46.96490 | -119.42964 | 6992 ft | 169 kts | 128° |
| 2026-05-06 05:41 | 46.95777 | -119.41593 | 6993 ft | 169 kts | 128° |
| 2026-05-06 05:41 | 46.95058 | -119.40220 | 6999 ft | 170 kts | 129° |
| 2026-05-06 05:41 | 46.94335 | -119.38847 | 6999 ft | 170 kts | 129° |
| 2026-05-06 05:41 | 46.93615 | -119.37477 | 6997 ft | 170 kts | 129° |
| 2026-05-06 05:42 | 46.92893 | -119.36114 | 6998 ft | 170 kts | 129° |
| 2026-05-06 05:42 | 46.92173 | -119.34745 | 6997 ft | 170 kts | 129° |
| 2026-05-06 05:42 | 46.91459 | -119.33382 | 6991 ft | 169 kts | 129° |
| 2026-05-06 05:42 | 46.90740 | -119.32014 | 6996 ft | 169 kts | 129° |
| 2026-05-06 05:43 | 46.90036 | -119.30679 | 7000 ft | 168 kts | 129° |
| 2026-05-06 05:43 | 46.89324 | -119.29324 | 7003 ft | 168 kts | 129° |
| 2026-05-06 05:43 | 46.88606 | -119.27970 | 7000 ft | 169 kts | 129° |
| 2026-05-06 05:43 | 46.87900 | -119.26629 | 6991 ft | 169 kts | 129° |
| 2026-05-06 05:44 | 46.87174 | -119.25255 | 6999 ft | 169 kts | 129° |
| 2026-05-06 05:44 | 46.86485 | -119.23950 | 6992 ft | 168 kts | 129° |
| 2026-05-06 05:44 | 46.85771 | -119.22589 | 7002 ft | 169 kts | 129° |
| 2026-05-06 05:44 | 46.85050 | -119.21228 | 6999 ft | 169 kts | 129° |
| 2026-05-06 05:45 | 46.84332 | -119.19872 | 7001 ft | 169 kts | 129° |
| 2026-05-06 05:45 | 46.83614 | -119.18514 | 7002 ft | 169 kts | 129° |
| 2026-05-06 05:45 | 46.82893 | -119.17155 | 7003 ft | 169 kts | 129° |
| 2026-05-06 05:45 | 46.82176 | -119.15799 | 6997 ft | 169 kts | 129° |
| 2026-05-06 05:46 | 46.81458 | -119.14442 | 6998 ft | 169 kts | 129° |
| 2026-05-06 05:46 | 46.80740 | -119.13085 | 7001 ft | 170 kts | 130° |
| 2026-05-06 05:46 | 46.80014 | -119.11724 | 7002 ft | 170 kts | 129° |
| 2026-05-06 05:46 | 46.79290 | -119.10355 | 7002 ft | 170 kts | 129° |
| 2026-05-06 05:47 | 46.78565 | -119.08987 | 7005 ft | 171 kts | 129° |
| 2026-05-06 05:47 | 46.77842 | -119.07617 | 7005 ft | 170 kts | 129° |
| 2026-05-06 05:47 | 46.77116 | -119.06252 | 7005 ft | 170 kts | 129° |
| 2026-05-06 05:47 | 46.76387 | -119.04888 | 7005 ft | 171 kts | 129° |
| 2026-05-06 05:48 | 46.75661 | -119.03522 | 7004 ft | 171 kts | 129° |
| 2026-05-06 05:48 | 46.74934 | -119.02151 | 7000 ft | 171 kts | 129° |
| 2026-05-06 05:48 | 46.74206 | -119.00783 | 7004 ft | 171 kts | 129° |
| 2026-05-06 05:48 | 46.73487 | -118.99432 | 7004 ft | 171 kts | 129° |
| 2026-05-06 05:49 | 46.72757 | -118.98068 | 7005 ft | 171 kts | 129° |
| 2026-05-06 05:49 | 46.72030 | -118.96702 | 6997 ft | 170 kts | 129° |
| 2026-05-06 05:49 | 46.71303 | -118.95337 | 7006 ft | 170 kts | 129° |
| 2026-05-06 05:49 | 46.70575 | -118.93975 | 7010 ft | 171 kts | 129° |
| 2026-05-06 05:50 | 46.69848 | -118.92613 | 7010 ft | 170 kts | 129° |
| 2026-05-06 05:50 | 46.69119 | -118.91247 | 7010 ft | 170 kts | 129° |
| 2026-05-06 05:50 | 46.68393 | -118.89888 | 7012 ft | 170 kts | 129° |
| 2026-05-06 05:50 | 46.67665 | -118.88525 | 7012 ft | 170 kts | 129° |
| 2026-05-06 05:51 | 46.66937 | -118.87161 | 7011 ft | 170 kts | 129° |
| 2026-05-06 05:51 | 46.66207 | -118.85801 | 7012 ft | 171 kts | 129° |
| 2026-05-06 05:51 | 46.65475 | -118.84441 | 7014 ft | 171 kts | 129° |
| 2026-05-06 05:51 | 46.64736 | -118.83074 | 7013 ft | 172 kts | 128° |
| 2026-05-06 05:52 | 46.64005 | -118.81697 | 7016 ft | 172 kts | 128° |
| 2026-05-06 05:52 | 46.63271 | -118.80322 | 7016 ft | 172 kts | 128° |
| 2026-05-06 05:52 | 46.62536 | -118.78952 | 7015 ft | 172 kts | 128° |
| 2026-05-06 05:52 | 46.61800 | -118.77580 | 7015 ft | 172 kts | 128° |
| 2026-05-06 05:53 | 46.61014 | -118.76278 | 7006 ft | 172 kts | 143° |
| 2026-05-06 05:53 | 46.60009 | -118.75350 | 7014 ft | 171 kts | 150° |
| 2026-05-06 05:53 | 46.58998 | -118.74444 | 7016 ft | 171 kts | 150° |
| 2026-05-06 05:53 | 46.57987 | -118.73540 | 7015 ft | 171 kts | 150° |
| 2026-05-06 05:54 | 46.56976 | -118.72626 | 7016 ft | 171 kts | 149° |
| 2026-05-06 05:54 | 46.55965 | -118.71708 | 7008 ft | 171 kts | 149° |
| 2026-05-06 05:54 | 46.54970 | -118.70807 | 7015 ft | 171 kts | 149° |
| 2026-05-06 05:54 | 46.53961 | -118.69891 | 7015 ft | 171 kts | 149° |
| 2026-05-06 05:55 | 46.52953 | -118.68977 | 7014 ft | 171 kts | 149° |
| 2026-05-06 05:55 | 46.51944 | -118.68063 | 7015 ft | 171 kts | 150° |
| 2026-05-06 05:55 | 46.50934 | -118.67150 | 7014 ft | 171 kts | 149° |
| 2026-05-06 05:55 | 46.49928 | -118.66242 | 7015 ft | 171 kts | 149° |
| 2026-05-06 05:56 | 46.48921 | -118.65327 | 7015 ft | 171 kts | 149° |
| 2026-05-06 05:56 | 46.47912 | -118.64416 | 7013 ft | 170 kts | 149° |
| 2026-05-06 05:56 | 46.46903 | -118.63513 | 7015 ft | 170 kts | 149° |
| 2026-05-06 05:56 | 46.45910 | -118.62606 | 7014 ft | 168 kts | 148° |
| 2026-05-06 05:57 | 46.44910 | -118.61708 | 7016 ft | 170 kts | 148° |
| 2026-05-06 05:57 | 46.43913 | -118.60790 | 7021 ft | 170 kts | 148° |
| 2026-05-06 05:57 | 46.42908 | -118.59892 | 7021 ft | 170 kts | 149° |
| 2026-05-06 05:57 | 46.41898 | -118.58989 | 7021 ft | 170 kts | 148° |
| 2026-05-06 05:58 | 46.40892 | -118.58079 | 7023 ft | 171 kts | 148° |
| 2026-05-06 05:58 | 46.39885 | -118.57165 | 7022 ft | 171 kts | 148° |
| 2026-05-06 05:58 | 46.38873 | -118.56256 | 7022 ft | 171 kts | 149° |
| 2026-05-06 05:58 | 46.37862 | -118.55349 | 7023 ft | 171 kts | 149° |
| 2026-05-06 05:59 | 46.36851 | -118.54436 | 7023 ft | 171 kts | 148° |
| 2026-05-06 05:59 | 46.35840 | -118.53524 | 7025 ft | 171 kts | 149° |
| 2026-05-06 05:59 | 46.34829 | -118.52618 | 7021 ft | 171 kts | 149° |
| 2026-05-06 05:59 | 46.33817 | -118.51707 | 7012 ft | 171 kts | 149° |
| 2026-05-06 06:00 | 46.32803 | -118.50798 | 7019 ft | 171 kts | 149° |
| 2026-05-06 06:00 | 46.31791 | -118.49897 | 7017 ft | 171 kts | 149° |
| 2026-05-06 06:00 | 46.30781 | -118.48980 | 7015 ft | 171 kts | 149° |
| 2026-05-06 06:00 | 46.29817 | -118.48017 | 7003 ft | 172 kts | 145° |
| 2026-05-06 06:01 | 46.28797 | -118.47052 | 6812 ft | 172 kts | 148° |
| 2026-05-06 06:01 | 46.27808 | -118.46128 | 6642 ft | 170 kts | 148° |
| 2026-05-06 06:01 | 46.26808 | -118.45176 | 6377 ft | 173 kts | 147° |
| 2026-05-06 06:01 | 46.25825 | -118.44237 | 6253 ft | 166 kts | 148° |
| 2026-05-06 06:02 | 46.24853 | -118.43311 | 5992 ft | 169 kts | 148° |
| 2026-05-06 06:02 | 46.23875 | -118.42374 | 5797 ft | 167 kts | 148° |
| 2026-05-06 06:02 | 46.22917 | -118.41457 | 5613 ft | 165 kts | 148° |
| 2026-05-06 06:02 | 46.21987 | -118.40559 | 5402 ft | 165 kts | 149° |
| 2026-05-06 06:03 | 46.21032 | -118.39651 | 5219 ft | 163 kts | 148° |
| 2026-05-06 06:03 | 46.20086 | -118.38750 | 5047 ft | 162 kts | 148° |
| 2026-05-06 06:03 | 46.19149 | -118.37847 | 4863 ft | 162 kts | 148° |
| 2026-05-06 06:03 | 46.18217 | -118.36955 | 4699 ft | 160 kts | 149° |
| 2026-05-06 06:04 | 46.17289 | -118.36077 | 4525 ft | 159 kts | 149° |
| 2026-05-06 06:04 | 46.16368 | -118.35194 | 4350 ft | 158 kts | 148° |
| 2026-05-06 06:04 | 46.15453 | -118.34320 | 4190 ft | 157 kts | 149° |
| 2026-05-06 06:04 | 46.14851 | -118.33747 | 4083 ft | 157 kts | 148° |
| 2026-05-06 06:05 | 46.13944 | -118.32879 | 3923 ft | 155 kts | 148° |
| 2026-05-06 06:05 | 46.13045 | -118.32024 | 3772 ft | 154 kts | 148° |
| 2026-05-06 06:05 | 46.12028 | -118.31535 | 3495 ft | 160 kts | 178° |
| 2026-05-06 06:05 | 46.10916 | -118.31838 | 3209 ft | 161 kts | 200° |
| 2026-05-06 06:06 | 46.09982 | -118.32516 | 3138 ft | 142 kts | 209° |
| 2026-05-06 06:06 | 46.09144 | -118.33176 | 3000 ft | 130 kts | 208° |
| 2026-05-06 06:06 | 46.08383 | -118.33823 | 2862 ft | 125 kts | 211° |
| 2026-05-06 06:06 | 46.07683 | -118.34509 | 2731 ft | 119 kts | 212° |
| 2026-05-06 06:07 | 46.07002 | -118.35160 | 2654 ft | 112 kts | 210° |
| 2026-05-06 06:07 | 46.06323 | -118.35689 | 2539 ft | 109 kts | 201° |
| 2026-05-06 06:07 | 46.05615 | -118.35717 | 2541 ft | 107 kts | 156° |
| 2026-05-06 06:07 | 46.05110 | -118.34904 | 2407 ft | 122 kts | 109° |
| 2026-05-06 06:08 | 46.05197 | -118.33742 | 2202 ft | 113 kts | 66° |
| 2026-05-06 06:08 | 46.05576 | -118.32810 | 1991 ft | 101 kts | 61° |
| 2026-05-06 06:08 | 46.05983 | -118.31987 | 1870 ft | 101 kts | 52° |
| 2026-05-06 06:08 | 46.06514 | -118.31297 | 1752 ft | 101 kts | 40° |
| 2026-05-06 06:09 | 46.07031 | -118.30758 | 1610 ft | 87 kts | 38° |
| 2026-05-06 06:09 | 46.07514 | -118.30242 | 1485 ft | 88 kts | 37° |
| 2026-05-06 06:09 | 46.08003 | -118.29729 | 1356 ft | 86 kts | 37° |
| 2026-05-06 06:09 | 46.08477 | -118.29228 | 1222 ft | 83 kts | 36° |
| 2026-05-06 06:10 | 46.08904 | -118.28779 | 1168 ft | 64 kts | 37° |
| 2026-05-06 06:10 | 46.09154 | -118.28521 | 1173 ft | 33 kts | 32° |
| 2026-05-06 06:10 | 46.09308 | -118.28352 | 1178 ft | 25 kts | 36° |
| 2026-05-06 06:10 | 46.09415 | -118.28243 | 1184 ft | 15 kts | 38° |
| 2026-05-06 06:11 | 46.09492 | -118.28158 | 1187 ft | 14 kts | 41° |
| 2026-05-06 06:11 | 46.09484 | -118.28049 | 1187 ft | 12 kts | 124° |
| 2026-05-06 06:11 | 46.09443 | -118.27968 | 1187 ft | 6 kts | 106° |
| 2026-05-06 06:11 | 46.09440 | -118.27903 | 1188 ft | 9 kts | 127° |
| 2026-05-06 06:12 | 46.09397 | -118.27822 | 1188 ft | 8 kts | 127° |
| 2026-05-06 06:12 | 46.09389 | -118.27807 | 1188 ft | 0 kts | 129° |